Delosexpress — SW9406 — position and weather

sailwx.info

Track history (hours):
 
Tides and Currents Weather Stations Pressure Air Temp Water Temp Dewpoint Dewpoint Depression Visibility Wind Speed Wind Dir Waves Ship Positions

Delosexpress

Last reported at 2017-Nov-12 18:10 UTC. Time now 2017-Nov-19 03:03 UTC.
Position N 37°27' E 025°20'.

Length 40 m; draft 2.6 m.

Type: Ship. MMSI: 237039500.

Date/timePositionNaut miles runAvg speedWind from/ knotsBaromVisibWave heightAir tempDewpointWater temp
2017-Nov-12 18:10N 37°27' E 025°20'211.4
2017-Nov-12 18:00N 37°27' E 025°18'815.4
2017-Nov-12 17:30N 37°27' E 025°08'0 0.3
2017-Nov-12 16:12N 37°27' E 025°08'316.3
2017-Nov-12 16:00N 37°27' E 025°12'6 0.1
2017-Nov-10 14:42N 37°27' E 025°20'314.0
2017-Nov-10 14:31N 37°25' E 025°17'2 4.3
2017-Nov-10 14:00N 37°27' E 025°19'1 0.1
2017-Nov-10 10:15N 37°27' E 025°20'312.3
2017-Nov-10 10:00N 37°25' E 025°17'3 0.1
2017-Nov-09 11:47N 37°27' E 025°20'413.2
2017-Nov-09 11:29N 37°24' E 025°16'0 0.9
2017-Nov-09 11:00N 37°24' E 025°16'0 0.0
2017-Nov-09 08:54N 37°24' E 025°16'0 0.0
2017-Nov-09 08:30N 37°24' E 025°16'4 0.2
2017-Nov-08 11:53N 37°27' E 025°20'411.4
2017-Nov-08 11:30N 37°24' E 025°16'0 0.0
2017-Nov-08 11:00N 37°24' E 025°16'0 0.0
2017-Nov-08 09:32N 37°24' E 025°16'0 0.0
2017-Nov-08 09:30N 37°24' E 025°16'0 0.0
2017-Nov-08 09:00N 37°24' E 025°16'0 0.0
2017-Nov-08 08:30N 37°24' E 025°16'4 0.2
2017-Nov-07 11:49N 37°27' E 025°20'413.2
2017-Nov-07 11:30N 37°24' E 025°16'0 0.5
2017-Nov-07 11:01N 37°24' E 025°16'0 0.0
2017-Nov-07 09:15N 37°24' E 025°16'0 0.0
2017-Nov-07 09:00N 37°24' E 025°16'0 0.0
2017-Nov-07 08:30N 37°24' E 025°16'4 0.1
2017-Nov-05 11:54N 37°27' E 025°20'410.1
2017-Nov-05 11:29N 37°24' E 025°16'0 0.0
2017-Nov-05 08:57N 37°24' E 025°16'0 0.0
2017-Nov-05 08:30N 37°24' E 025°16'4 0.2
2017-Nov-04 13:41N 37°27' E 025°20'213.7
2017-Nov-04 13:31N 37°26' E 025°17'2 3.9
2017-Nov-04 13:00N 37°24' E 025°16'0 0.0
2017-Nov-04 12:30N 37°24' E 025°16'4 8.5
2017-Nov-04 12:00N 37°27' E 025°19'4 5.9
2017-Nov-04 11:17N 37°24' E 025°16'0 0.0
2017-Nov-04 11:00N 37°24' E 025°16'4 8.5
2017-Nov-04 10:30N 37°27' E 025°20'0 0.1
2017-Nov-04 09:54N 37°27' E 025°20'0 0.2
2017-Nov-04 09:27N 37°27' E 025°20'4 9.7
2017-Nov-04 09:01N 37°24' E 025°16'0 0.0
2017-Nov-04 08:31N 37°24' E 025°16'4 4.0
2017-Nov-04 07:26N 37°27' E 025°20'4 9.9
2017-Nov-04 07:00N 37°24' E 025°16'5 9.7
2017-Nov-04 06:30N 37°28' E 025°20'1 1.2
2017-Nov-04 06:00N 37°27' E 025°19'  
Track history (hours):
 
Tides and Currents Weather Stations Pressure Air Temp Water Temp Dewpoint Dewpoint Depression Visibility Wind Speed Wind Dir Waves Ship Positions

Delosexpress

Last reported at 2017-Nov-12 18:10 UTC. Time now 2017-Nov-19 03:03 UTC.
Position N 37°27' E 025°20'.

Length 40 m; draft 2.6 m.

Type: Ship. MMSI: 237039500.

Date/timePositionNaut miles runAvg speedWind from/ knotsBaromVisibWave heightAir tempDewpointWater temp
2017-Nov-12 18:10N 37°27' E 025°20'211.4
2017-Nov-12 18:00N 37°27' E 025°18'815.4
2017-Nov-12 17:30N 37°27' E 025°08'0 0.3
2017-Nov-12 16:12N 37°27' E 025°08'316.3
2017-Nov-12 16:00N 37°27' E 025°12'6 0.1
2017-Nov-10 14:42N 37°27' E 025°20'314.0
2017-Nov-10 14:31N 37°25' E 025°17'2 4.3
2017-Nov-10 14:00N 37°27' E 025°19'1 0.1
2017-Nov-10 10:15N 37°27' E 025°20'312.3
2017-Nov-10 10:00N 37°25' E 025°17'3 0.1
2017-Nov-09 11:47N 37°27' E 025°20'413.2
2017-Nov-09 11:29N 37°24' E 025°16'0 0.9
2017-Nov-09 11:00N 37°24' E 025°16'0 0.0
2017-Nov-09 08:54N 37°24' E 025°16'0 0.0
2017-Nov-09 08:30N 37°24' E 025°16'4 0.2
2017-Nov-08 11:53N 37°27' E 025°20'411.4
2017-Nov-08 11:30N 37°24' E 025°16'0 0.0
2017-Nov-08 11:00N 37°24' E 025°16'0 0.0
2017-Nov-08 09:32N 37°24' E 025°16'0 0.0
2017-Nov-08 09:30N 37°24' E 025°16'0 0.0
2017-Nov-08 09:00N 37°24' E 025°16'0 0.0
2017-Nov-08 08:30N 37°24' E 025°16'4 0.2
2017-Nov-07 11:49N 37°27' E 025°20'413.2
2017-Nov-07 11:30N 37°24' E 025°16'0 0.5
2017-Nov-07 11:01N 37°24' E 025°16'0 0.0
2017-Nov-07 09:15N 37°24' E 025°16'0 0.0
2017-Nov-07 09:00N 37°24' E 025°16'0 0.0
2017-Nov-07 08:30N 37°24' E 025°16'4 0.1
2017-Nov-05 11:54N 37°27' E 025°20'410.1
2017-Nov-05 11:29N 37°24' E 025°16'0 0.0
2017-Nov-05 08:57N 37°24' E 025°16'0 0.0
2017-Nov-05 08:30N 37°24' E 025°16'4 0.2
2017-Nov-04 13:41N 37°27' E 025°20'213.7
2017-Nov-04 13:31N 37°26' E 025°17'2 3.9
2017-Nov-04 13:00N 37°24' E 025°16'0 0.0
2017-Nov-04 12:30N 37°24' E 025°16'4 8.5
2017-Nov-04 12:00N 37°27' E 025°19'4 5.9
2017-Nov-04 11:17N 37°24' E 025°16'0 0.0
2017-Nov-04 11:00N 37°24' E 025°16'4 8.5
2017-Nov-04 10:30N 37°27' E 025°20'0 0.1
2017-Nov-04 09:54N 37°27' E 025°20'0 0.2
2017-Nov-04 09:27N 37°27' E 025°20'4 9.7
2017-Nov-04 09:01N 37°24' E 025°16'0 0.0
2017-Nov-04 08:31N 37°24' E 025°16'4 4.0
2017-Nov-04 07:26N 37°27' E 025°20'4 9.9
2017-Nov-04 07:00N 37°24' E 025°16'5 9.7
2017-Nov-04 06:30N 37°28' E 025°20'1 1.2
2017-Nov-04 06:00N 37°27' E 025°19'  

Dump ship's entire track history